Arbela, Missouri
Current Conditions -  °F | °C
As of 10:15 PM on Friday 19 Dec 2014 (Local Time) from KEOK Reporting Station
Overcast Overcast  
Wind Chill: 27°   Ceiling: 5000
Heat Index: 32°   Visibility: 10mi
Dew Point: 27°   Wind: 5mph
Humidity: 80%   Direction: 140°SE
Pressure: 30.25"   Gusts: NA
Location:  40.46°N, 92.02°W
Report Text: KEOK 200415Z AUTO 14004KT 10SM OVC050 M00/M03 A3025 RMK AO2
Loading
Personal Weather Stations






























Interactive Weather Map New forecast layout! Learn more

10-Day Weather Forecast

Advertisements
Track Severe Weather on mobile